Terminal Aerodrome Forecast
Issued by NWS

Home | Current Version | Previous Version | Text Only | Print | Product List | Glossary On
Versions: 1 2 3 4 5 6 7 8 9 10 11 12
000
FTUS44 KSJT 191128
TAFBBD
TAF
KBBD 191128Z 1912/2012 17004KT P6SM SCT250
     FM191600 17012KT P6SM BKN250
     FM200000 13007KT P6SM SCT050 BKN250
     FM200700 14007KT P6SM BKN015
      AMD NOT SKED=

USA.gov is the U.S. government's official web portal to all federal, state and local government web resources and services.